YSSY

Sydney Kingsford Smith International Airport

Sydney, Australia
TAF YSSY 212306Z 2200/2306 03012KT CAVOK FM220300 03020KT CAVOK FM221000 02010KT 9999 FEW010 FM222000 33008KT 9999 -SHRA FEW010 BKN080 FM230100 18020G30KT 9999 -SHRA SCT025 BKN035
Issued Valid From Valid To
Jan-21 @ 23:06 UTC
(an hour ago)
Jan-22 @ 00:00 UTC
(12 minutes ago)
Jan-23 @ 06:00 UTC
(-1 days ago)
Jan-22 @ 00:00 to Jan-22 @ 03:00
TAF YSSY 212306Z 2200/2306 03012KT CAVOK
Wind Visibility Clouds Conditions
30° at 12 knots 10,000+ meters
  • No significant clouds
From Jan-22 @ 03:00 to Jan-22 @ 10:00
FM220300 03020KT CAVOK
Wind Visibility Clouds Conditions
30° at 20 knots 10,000+ meters
  • No significant clouds
From Jan-22 @ 10:00 to Jan-22 @ 20:00
FM221000 02010KT 9999 FEW010
Wind Visibility Clouds
20° at 10 knots 10,000+ meters
  • Few at 1,000' AGL
From Jan-22 @ 20:00 to Jan-23 @ 01:00
FM222000 33008KT 9999 -SHRA FEW010 BKN080
Wind Visibility Clouds Conditions
330° at 8 knots 10,000+ meters
  • Few at 1,000' AGL
  • Broken at 8,000' AGL
  • Light Rain
From Jan-23 @ 01:00 to Jan-23 @ 06:00
FM230100 18020G30KT 9999 -SHRA SCT025 BKN035
Wind Visibility Clouds Conditions
180° at 20 knots
 Gusting to 30 knots
10,000+ meters
  • Scattered at 2,500' AGL
  • Broken at 3,500' AGL
  • Light Rain
TAF YSSY 212306Z 2200/2306 03012KT CAVOK FM220300 03020KT CAVOK FM221000 02010KT 9999 FEW010 FM222000 33008KT 9999 -SHRA FEW010 BKN080 FM230100 18020G30KT 9999 -SHRA SCT025 BKN035
Issued Jan-21 @ 23:06 UTC
(an hour ago)
Valid From Jan-22 @ 00:00 UTC
(12 minutes ago)
Valid To Jan-23 @ 06:00 UTC
(-1 days ago)
Jan-22 @ 00:00 - Jan-22 @ 03:00
Wind Visibility
30° at 12 knots 10,000+ meters
Clouds
  • No significant clouds
Conditions
From Jan-22 @ 03:00 - Jan-22 @ 10:00
Wind Visibility
30° at 20 knots 10,000+ meters
Clouds
  • No significant clouds
Conditions
From Jan-22 @ 10:00 - Jan-22 @ 20:00
Wind Visibility
20° at 10 knots 10,000+ meters
Clouds
  • Few at 1,000' AGL
From Jan-22 @ 20:00 - Jan-23 @ 01:00
Wind Visibility
330° at 8 knots 10,000+ meters
Clouds
  • Few at 1,000' AGL
  • Broken at 8,000' AGL
Conditions
  • Light Rain
From Jan-23 @ 01:00 - Jan-23 @ 06:00
Wind Visibility
180° at 20 knots
 Gusting to 30 knots
10,000+ meters
Clouds
  • Scattered at 2,500' AGL
  • Broken at 3,500' AGL
Conditions
  • Light Rain